createdAt,value
2019-05-12T00:02:21.967Z,10.40
2019-05-12T00:04:48.953Z,10.40
2019-05-12T00:07:17.910Z,10.40
2019-05-12T00:09:44.470Z,10.30
2019-05-12T00:12:11.224Z,10.40
2019-05-12T00:14:38.193Z,10.40
2019-05-12T00:17:04.978Z,10.40
2019-05-12T00:19:31.808Z,10.50
2019-05-12T00:21:58.803Z,10.50
2019-05-12T00:24:27.802Z,10.50
2019-05-12T00:26:58.008Z,10.60
2019-05-12T00:29:24.653Z,10.70
2019-05-12T00:31:53.575Z,10.70
2019-05-12T00:34:21.449Z,10.70
2019-05-12T00:36:48.648Z,10.70
2019-05-12T00:39:15.520Z,10.70
2019-05-12T00:41:44.362Z,10.70
2019-05-12T00:44:11.099Z,10.70
2019-05-12T00:46:38.545Z,10.70
2019-05-12T00:49:07.808Z,10.70
2019-05-12T00:51:34.152Z,10.80
2019-05-12T00:54:00.802Z,10.80
2019-05-12T00:56:28.487Z,10.90
2019-05-12T00:58:57.892Z,11.00
2019-05-12T01:01:23.932Z,11.00
2019-05-12T01:03:50.687Z,11.00
2019-05-12T01:06:17.863Z,11.00
2019-05-12T01:08:44.517Z,10.90
2019-05-12T01:11:11.159Z,11.00
2019-05-12T01:13:38.316Z,11.00
2019-05-12T01:16:08.051Z,11.00
2019-05-12T01:18:34.708Z,11.10
2019-05-12T01:21:01.489Z,11.00
2019-05-12T01:23:29.397Z,11.00
2019-05-12T01:25:58.446Z,11.00
2019-05-12T01:28:24.608Z,11.00
2019-05-12T01:30:51.549Z,11.00
2019-05-12T01:33:18.549Z,11.00
2019-05-12T01:35:45.186Z,11.00
2019-05-12T01:38:11.966Z,10.90
2019-05-12T01:40:39.714Z,11.00
2019-05-12T01:43:08.585Z,11.00
2019-05-12T01:45:35.083Z,11.00
2019-05-12T01:48:01.854Z,11.10
2019-05-12T01:50:28.715Z,11.10
2019-05-12T01:52:55.717Z,11.10
2019-05-12T01:55:22.498Z,11.10
2019-05-12T01:57:49.241Z,11.10
2019-05-12T02:00:18.237Z,11.10
2019-05-12T02:02:44.923Z,11.00
2019-05-12T02:05:11.878Z,11.00
2019-05-12T02:07:49.093Z,11.10
2019-05-12T02:10:18.033Z,11.00
2019-05-12T02:12:44.911Z,11.00
2019-05-12T02:15:11.965Z,11.10
2019-05-12T02:17:39.269Z,11.10
2019-05-12T02:20:07.742Z,11.10
2019-05-12T02:22:34.656Z,11.10
2019-05-12T02:25:01.445Z,11.10
2019-05-12T02:27:28.404Z,11.10
2019-05-12T02:29:55.109Z,11.10
2019-05-12T02:32:25.290Z,11.00
2019-05-12T02:34:50.453Z,11.00
2019-05-12T02:37:17.203Z,10.90
2019-05-12T02:39:44.966Z,10.90
2019-05-12T02:42:15.379Z,10.80
2019-05-12T02:44:40.398Z,10.80
2019-05-12T02:47:07.238Z,10.80
2019-05-12T02:49:34.915Z,10.70
2019-05-12T02:52:04.947Z,10.60
2019-05-12T02:54:50.577Z,10.50
2019-05-12T02:57:04.311Z,10.50
2019-05-12T02:59:34.444Z,10.40
2019-05-12T03:01:59.999Z,10.40
2019-05-12T03:04:27.016Z,10.40
2019-05-12T03:06:54.936Z,10.20
2019-05-12T03:09:24.409Z,10.20
2019-05-12T03:11:51.076Z,10.20
2019-05-12T03:14:17.868Z,10.20
2019-05-12T03:16:45.437Z,10.20
2019-05-12T03:19:15.009Z,10.20
2019-05-12T03:21:44.158Z,10.20
2019-05-12T03:24:09.634Z,10.10
2019-05-12T03:26:36.404Z,10.20
2019-05-12T03:29:05.643Z,10.10
2019-05-12T03:31:38.672Z,10.00
2019-05-12T03:34:08.110Z,10.10
2019-05-12T03:36:39.042Z,10.10
2019-05-12T03:38:58.757Z,10.20
2019-05-12T03:41:25.525Z,10.20
2019-05-12T03:43:54.992Z,10.20
2019-05-12T03:46:24.975Z,10.10
2019-05-12T03:48:55.058Z,10.10
2019-05-12T03:51:20.515Z,10.20
2019-05-12T03:53:47.301Z,10.10
2019-05-12T03:56:15.045Z,10.00
2019-05-12T03:58:45.227Z,10.10
2019-05-12T04:01:10.808Z,10.20
2019-05-12T04:03:37.744Z,10.20
2019-05-12T04:06:04.866Z,10.20
2019-05-12T04:08:34.476Z,10.20
2019-05-12T04:11:00.377Z,10.20
2019-05-12T04:13:27.077Z,10.20
2019-05-12T04:15:55.727Z,10.10
2019-05-12T04:18:24.746Z,10.20
2019-05-12T04:20:54.471Z,10.30
2019-05-12T04:23:20.489Z,10.30
2019-05-12T04:25:52.610Z,10.30
2019-05-12T04:28:15.888Z,10.20
2019-05-12T04:30:44.551Z,10.30
2019-05-12T04:33:15.079Z,10.20
2019-05-12T04:35:40.133Z,10.30
2019-05-12T04:38:06.923Z,10.20
2019-05-12T04:40:35.861Z,10.20
2019-05-12T04:43:05.916Z,10.20
2019-05-12T04:45:30.837Z,10.20
2019-05-12T04:47:57.537Z,10.20
2019-05-12T04:50:24.694Z,10.30
2019-05-12T04:52:54.641Z,10.40
2019-05-12T04:55:20.291Z,10.40
2019-05-12T04:57:47.040Z,10.40
2019-05-12T05:00:15.777Z,10.30
2019-05-12T05:02:45.283Z,10.40
2019-05-12T05:05:14.242Z,10.30
2019-05-12T05:07:40.297Z,10.30
2019-05-12T05:10:07.415Z,10.40
2019-05-12T05:12:34.590Z,10.40
2019-05-12T05:15:05.197Z,10.40
2019-05-12T05:17:31.260Z,10.40
2019-05-12T05:19:59.061Z,10.40
2019-05-12T05:22:25.777Z,10.40
2019-05-12T05:24:53.618Z,10.40
2019-05-12T05:27:20.331Z,10.40
2019-05-12T05:29:47.129Z,10.50
2019-05-12T05:32:14.098Z,10.60
2019-05-12T05:34:46.222Z,10.60
2019-05-12T05:37:09.539Z,10.70
2019-05-12T05:39:47.565Z,10.80
2019-05-12T05:42:04.918Z,10.80
2019-05-12T05:44:36.276Z,10.80
2019-05-12T05:47:00.488Z,10.80
2019-05-12T05:49:27.393Z,10.90
2019-05-12T05:51:57.363Z,10.90
2019-05-12T05:54:31.079Z,11.00
2019-05-12T05:57:01.923Z,11.00
2019-05-12T05:59:21.934Z,11.10
2019-05-12T06:01:52.018Z,11.10
2019-05-12T06:04:17.372Z,11.10
2019-05-12T06:06:50.605Z,11.20
2019-05-12T06:09:14.123Z,11.20
2019-05-12T06:11:41.046Z,11.20
2019-05-12T06:14:12.865Z,11.30
2019-05-12T06:16:36.356Z,11.30
2019-05-12T06:19:03.515Z,11.30
2019-05-12T06:21:34.732Z,11.40
2019-05-12T06:23:58.976Z,11.40
2019-05-12T06:26:30.899Z,11.40
2019-05-12T06:28:57.402Z,11.40
2019-05-12T06:31:25.244Z,11.40
2019-05-12T06:33:53.546Z,11.40
2019-05-12T06:36:22.266Z,11.40
2019-05-12T06:38:48.739Z,11.50
2019-05-12T06:41:20.793Z,11.40
2019-05-12T06:43:45.444Z,11.40
2019-05-12T06:46:20.425Z,11.50
2019-05-12T06:48:43.229Z,11.50
2019-05-12T06:51:17.069Z,11.50
2019-05-12T06:53:38.066Z,11.60
2019-05-12T06:56:09.382Z,11.60
2019-05-12T06:58:34.381Z,11.60
2019-05-12T07:01:04.427Z,11.60
2019-05-12T07:03:31.521Z,11.60
2019-05-12T07:05:58.756Z,11.70
2019-05-12T07:08:27.410Z,11.70
2019-05-12T07:11:01.634Z,11.70
2019-05-12T07:13:29.036Z,11.70
2019-05-12T07:15:51.465Z,11.70
2019-05-12T07:18:24.343Z,11.70
2019-05-12T07:20:49.260Z,11.70
2019-05-12T07:23:19.822Z,11.60
2019-05-12T07:25:44.804Z,11.70
2019-05-12T07:28:11.605Z,11.70
2019-05-12T07:30:38.837Z,11.70
2019-05-12T07:33:05.676Z,11.70
2019-05-12T07:35:33.951Z,11.70
2019-05-12T07:38:01.039Z,11.70
2019-05-12T07:40:30.071Z,11.80
2019-05-12T07:42:57.288Z,11.80
2019-05-12T07:45:25.485Z,11.70
2019-05-12T07:47:54.123Z,11.70
2019-05-12T07:50:26.501Z,11.70
2019-05-12T07:52:50.175Z,11.60
2019-05-12T07:55:16.984Z,11.70
2019-05-12T07:57:53.904Z,11.60
2019-05-12T08:00:21.068Z,11.70
2019-05-12T08:02:44.374Z,11.60
2019-05-12T08:05:16.782Z,11.60
2019-05-12T08:07:41.595Z,11.60
2019-05-12T08:10:15.933Z,11.70
2019-05-12T08:12:37.577Z,11.70
2019-05-12T08:15:09.581Z,11.80
2019-05-12T08:17:34.099Z,11.80
2019-05-12T08:20:00.875Z,11.80
2019-05-12T08:22:29.461Z,11.80
2019-05-12T08:24:56.202Z,12.00
2019-05-12T08:27:23.536Z,12.00
2019-05-12T08:29:54.451Z,12.10
2019-05-12T08:32:20.419Z,12.00
2019-05-12T08:34:47.485Z,12.00
2019-05-12T08:37:14.376Z,12.00
2019-05-12T08:39:41.095Z,12.10
2019-05-12T08:42:08.975Z,12.10
2019-05-12T08:44:40.545Z,12.20
2019-05-12T08:47:04.490Z,12.20
2019-05-12T08:49:34.060Z,12.30
2019-05-12T08:52:00.344Z,12.30
2019-05-12T08:54:27.316Z,12.30
2019-05-12T08:56:59.241Z,12.40
2019-05-12T08:59:26.718Z,12.40
2019-05-12T09:01:51.148Z,12.40
2019-05-12T09:04:18.451Z,12.50
2019-05-12T09:06:45.356Z,12.40
2019-05-12T09:09:13.933Z,12.40
2019-05-12T09:11:43.998Z,12.40
2019-05-12T09:14:09.487Z,12.50
2019-05-12T09:16:36.331Z,12.40
2019-05-12T09:19:04.856Z,12.40
2019-05-12T09:21:34.152Z,12.40
2019-05-12T09:24:00.783Z,12.40
2019-05-12T09:26:28.499Z,12.40
2019-05-12T09:28:55.778Z,12.40
2019-05-12T09:31:25.521Z,12.30
2019-05-12T09:33:51.617Z,12.00
2019-05-12T09:36:21.480Z,12.00
2019-05-12T09:38:48.154Z,12.00
2019-05-12T09:41:15.100Z,12.00
2019-05-12T09:43:46.378Z,12.00
2019-05-12T09:46:10.826Z,12.00
2019-05-12T09:48:39.139Z,12.00
2019-05-12T09:51:08.007Z,12.00
2019-05-12T09:53:34.707Z,11.90
2019-05-12T09:56:01.422Z,11.90
2019-05-12T09:58:28.200Z,11.90
2019-05-12T10:00:55.053Z,11.80
2019-05-12T10:03:24.084Z,11.80
2019-05-12T10:05:50.542Z,11.70
2019-05-12T10:08:17.983Z,11.50
2019-05-12T10:10:47.009Z,11.40
2019-05-12T10:13:13.891Z,11.30
2019-05-12T10:15:40.920Z,11.20
2019-05-12T10:18:11.011Z,11.30
2019-05-12T10:20:39.723Z,11.20
2019-05-12T10:23:10.134Z,11.10
2019-05-12T10:25:34.373Z,11.00
2019-05-12T10:28:03.024Z,10.90
2019-05-12T10:30:29.873Z,11.00
2019-05-12T10:32:56.784Z,11.00
2019-05-12T10:35:26.232Z,11.00
2019-05-12T10:37:53.768Z,11.00
2019-05-12T10:40:20.514Z,11.00
2019-05-12T10:42:49.438Z,11.10
2019-05-12T10:45:20.409Z,11.10
2019-05-12T10:47:45.259Z,10.90
2019-05-12T10:50:14.211Z,10.90
2019-05-12T10:52:40.807Z,11.00
2019-05-12T10:55:08.056Z,11.10
2019-05-12T10:57:34.951Z,11.30
2019-05-12T11:00:05.180Z,11.30
2019-05-12T11:02:33.659Z,11.30
2019-05-12T11:05:00.495Z,11.40
2019-05-12T11:07:27.995Z,11.40
2019-05-12T11:09:55.863Z,11.50
2019-05-12T11:12:25.149Z,11.70
2019-05-12T11:14:51.113Z,11.80
2019-05-12T11:17:18.993Z,11.90
2019-05-12T11:19:51.314Z,11.80
2019-05-12T11:22:14.270Z,11.80
2019-05-12T11:24:41.206Z,11.70
2019-05-12T11:27:07.863Z,11.60
2019-05-12T11:29:46.225Z,11.60
2019-05-12T11:32:05.140Z,11.50
2019-05-12T11:34:33.583Z,11.50
2019-05-12T11:37:00.569Z,11.60
2019-05-12T11:39:30.623Z,11.60
2019-05-12T11:41:55.959Z,11.60
2019-05-12T11:44:23.242Z,11.60
2019-05-12T11:46:50.219Z,11.60
2019-05-12T11:49:21.619Z,11.70
2019-05-12T11:51:46.677Z,11.60
2019-05-12T11:54:13.835Z,11.70
2019-05-12T11:56:46.607Z,11.60
2019-05-12T11:59:09.428Z,11.70
2019-05-12T12:01:39.533Z,11.80
2019-05-12T12:04:04.935Z,12.00
2019-05-12T12:06:33.171Z,12.00
2019-05-12T12:09:00.073Z,12.10
2019-05-12T12:11:28.067Z,12.30
2019-05-12T12:13:55.112Z,12.30
2019-05-12T12:16:23.760Z,12.30
2019-05-12T12:18:59.521Z,12.40
2019-05-12T12:21:19.003Z,12.50
2019-05-12T12:23:50.041Z,12.70
2019-05-12T12:26:20.145Z,12.90
2019-05-12T12:28:45.009Z,13.10
2019-05-12T12:31:13.217Z,13.40
2019-05-12T12:33:41.031Z,13.60
2019-05-12T12:36:09.068Z,13.60
2019-05-12T12:38:35.913Z,13.60
2019-05-12T12:41:03.862Z,13.50
2019-05-12T12:43:30.839Z,13.80
2019-05-12T12:45:59.479Z,13.60
2019-05-12T12:48:29.710Z,13.40
2019-05-12T12:50:55.178Z,13.40
2019-05-12T12:53:23.811Z,13.20
2019-05-12T12:55:50.680Z,13.20
2019-05-12T12:58:21.108Z,13.20
2019-05-12T13:00:53.635Z,13.30
2019-05-12T13:03:19.725Z,13.10
2019-05-12T13:05:45.531Z,13.20
2019-05-12T13:08:12.282Z,13.30
2019-05-12T13:10:40.471Z,13.30
2019-05-12T13:13:07.793Z,13.10
2019-05-12T13:15:34.377Z,13.20
2019-05-12T13:18:01.125Z,13.30
2019-05-12T13:20:27.938Z,13.30
2019-05-12T13:22:54.867Z,13.20
2019-05-12T13:25:21.736Z,13.20
2019-05-12T13:27:48.800Z,13.30
2019-05-12T13:30:20.131Z,13.30
2019-05-12T13:32:44.844Z,13.50
2019-05-12T13:35:16.491Z,13.50
2019-05-12T13:37:40.459Z,13.40
2019-05-12T13:40:07.735Z,13.50
2019-05-12T13:42:35.750Z,13.50
2019-05-12T13:45:05.253Z,13.50
2019-05-12T13:47:35.496Z,13.50
2019-05-12T13:50:00.784Z,13.50
2019-05-12T13:52:30.343Z,13.60
2019-05-12T13:55:00.090Z,13.70
2019-05-12T13:57:24.798Z,13.80
2019-05-12T13:59:55.790Z,13.80
2019-05-12T14:02:22.107Z,13.80
2019-05-12T14:04:49.225Z,13.90
2019-05-12T14:07:20.022Z,13.90
2019-05-12T14:09:44.734Z,13.80
2019-05-12T14:12:13.572Z,13.80
2019-05-12T14:14:40.380Z,13.70
2019-05-12T14:17:07.264Z,13.40
2019-05-12T14:19:35.543Z,13.20
2019-05-12T14:22:03.502Z,13.10
2019-05-12T14:24:33.134Z,13.00
2019-05-12T14:26:59.223Z,12.90
2019-05-12T14:29:30.402Z,12.80
2019-05-12T14:32:01.894Z,12.70
2019-05-12T14:34:23.679Z,12.60
2019-05-12T14:36:50.891Z,12.50
2019-05-12T14:39:17.672Z,12.50
2019-05-12T14:41:53.045Z,12.40
2019-05-12T14:44:13.818Z,12.30
2019-05-12T14:46:46.258Z,12.20
2019-05-12T14:49:09.486Z,12.20
2019-05-12T14:51:36.231Z,12.20
2019-05-12T14:54:04.001Z,12.10
2019-05-12T14:56:30.989Z,12.00
2019-05-12T14:59:00.724Z,12.00
2019-05-12T15:01:38.466Z,12.00
2019-05-12T15:03:55.408Z,11.90
2019-05-12T15:06:25.573Z,11.90
2019-05-12T15:08:53.960Z,11.90
2019-05-12T15:11:23.741Z,11.80
2019-05-12T15:13:50.774Z,11.70
2019-05-12T15:16:17.615Z,11.70
2019-05-12T15:18:46.596Z,11.70
2019-05-12T15:21:13.837Z,11.60
2019-05-12T15:23:40.814Z,11.60
2019-05-12T15:26:09.655Z,11.50
2019-05-12T15:28:36.310Z,11.40
2019-05-12T15:31:03.832Z,11.30
2019-05-12T15:33:32.990Z,11.20
2019-05-12T15:35:59.420Z,11.00
2019-05-12T15:38:26.295Z,11.00
2019-05-12T15:40:53.769Z,10.90
2019-05-12T15:43:20.660Z,10.80
2019-05-12T15:45:49.109Z,10.70
2019-05-12T15:48:18.492Z,10.70
2019-05-12T15:50:45.789Z,10.60
2019-05-12T15:53:13.743Z,10.50
2019-05-12T15:55:43.485Z,10.50
2019-05-12T15:58:10.048Z,10.60
2019-05-12T16:00:38.437Z,10.60
2019-05-12T16:03:05.444Z,10.50
2019-05-12T16:05:33.867Z,10.50
2019-05-12T16:08:00.702Z,10.60
2019-05-12T16:10:27.596Z,10.60
2019-05-12T16:12:54.424Z,10.60
2019-05-12T16:15:21.395Z,10.60
2019-05-12T16:17:48.171Z,10.60
2019-05-12T16:20:16.305Z,10.50
2019-05-12T16:22:45.191Z,10.40
2019-05-12T16:25:15.214Z,10.50
2019-05-12T16:27:41.667Z,10.40
2019-05-12T16:30:08.647Z,10.40
2019-05-12T16:32:43.079Z,10.30
2019-05-12T16:35:07.275Z,10.30
2019-05-12T16:37:35.289Z,10.30
2019-05-12T16:40:04.489Z,10.30
2019-05-12T16:42:33.475Z,10.20
2019-05-12T16:45:06.071Z,10.20
2019-05-12T16:47:33.002Z,10.20
2019-05-12T16:49:57.562Z,10.20
2019-05-12T16:52:24.522Z,10.20
2019-05-12T16:54:53.902Z,10.20
2019-05-12T16:57:20.215Z,10.20
2019-05-12T16:59:47.010Z,10.20
2019-05-12T17:02:13.861Z,10.20
2019-05-12T17:04:40.576Z,10.20
2019-05-12T17:07:09.682Z,10.20
2019-05-12T17:09:36.020Z,10.20
2019-05-12T17:12:05.101Z,10.20
2019-05-12T17:14:36.611Z,10.20
2019-05-12T17:17:00.290Z,10.10
2019-05-12T17:19:27.155Z,10.00
2019-05-12T17:21:58.040Z,10.10
2019-05-12T17:24:23.900Z,10.10
2019-05-12T17:26:50.920Z,10.10
2019-05-12T17:29:17.880Z,10.10
2019-05-12T17:31:44.678Z,10.10
2019-05-12T17:34:11.667Z,10.10
2019-05-12T17:36:40.018Z,10.00
2019-05-12T17:39:07.077Z,10.00
2019-05-12T17:41:40.513Z,10.00
2019-05-12T17:44:04.325Z,9.90
2019-05-12T17:46:32.326Z,9.90
2019-05-12T17:48:59.712Z,9.90
2019-05-12T17:51:30.785Z,10.00
2019-05-12T17:53:55.171Z,9.90
2019-05-12T17:56:25.117Z,9.90
2019-05-12T17:58:52.783Z,9.90
2019-05-12T18:01:23.023Z,9.90
2019-05-12T18:03:50.579Z,10.00
2019-05-12T18:06:20.400Z,9.90
2019-05-12T18:08:45.386Z,9.80
2019-05-12T18:11:15.809Z,9.80
2019-05-12T18:13:40.887Z,9.70
2019-05-12T18:16:11.630Z,9.80
2019-05-12T18:18:38.256Z,9.80
2019-05-12T18:21:04.920Z,9.80
2019-05-12T18:23:34.187Z,9.80
2019-05-12T18:26:05.789Z,9.90
2019-05-12T18:28:29.539Z,9.80
2019-05-12T18:30:56.786Z,9.90
2019-05-12T18:33:33.456Z,10.00
2019-05-12T18:35:54.325Z,10.00
2019-05-12T18:38:23.912Z,10.10
2019-05-12T18:40:49.404Z,10.10
2019-05-12T18:43:16.153Z,10.10
2019-05-12T18:45:43.066Z,10.20
2019-05-12T18:48:17.960Z,10.30
2019-05-12T18:50:38.581Z,10.20
2019-05-12T18:53:05.397Z,10.30
2019-05-12T18:55:35.762Z,10.30
2019-05-12T18:58:00.844Z,10.40
2019-05-12T19:00:27.762Z,10.40
2019-05-12T19:02:59.541Z,10.40
2019-05-12T19:05:30.503Z,10.40
2019-05-12T19:07:54.282Z,10.40
2019-05-12T19:10:21.346Z,10.40
2019-05-12T19:12:51.754Z,10.40
2019-05-12T19:15:21.741Z,10.40
2019-05-12T19:17:45.971Z,10.40
2019-05-12T19:20:13.541Z,10.30
2019-05-12T19:22:48.122Z,10.30
2019-05-12T19:25:14.420Z,10.30
2019-05-12T19:27:40.605Z,10.30
2019-05-12T19:30:07.571Z,10.20
2019-05-12T19:32:36.684Z,10.20
2019-05-12T19:35:09.649Z,10.10
2019-05-12T19:37:34.466Z,10.00
2019-05-12T19:40:06.032Z,9.90
2019-05-12T19:42:30.661Z,9.80
2019-05-12T19:44:59.979Z,9.60
2019-05-12T19:47:33.152Z,9.60
2019-05-12T19:49:59.542Z,9.50
2019-05-12T19:52:24.408Z,9.60
2019-05-12T19:54:51.842Z,9.50
2019-05-12T19:57:21.935Z,9.60
2019-05-12T19:59:50.902Z,9.70
2019-05-12T20:02:16.133Z,9.80
2019-05-12T20:04:51.751Z,9.90
2019-05-12T20:07:11.701Z,9.90
2019-05-12T20:09:38.458Z,9.90
2019-05-12T20:12:08.382Z,9.90
2019-05-12T20:14:34.509Z,9.90
2019-05-12T20:17:01.187Z,9.90
2019-05-12T20:19:28.055Z,9.90
2019-05-12T20:21:54.849Z,9.90
2019-05-12T20:24:23.692Z,9.90
2019-05-12T20:26:50.217Z,9.90
2019-05-12T20:29:16.989Z,9.90
2019-05-12T20:31:48.592Z,9.90
2019-05-12T20:34:13.935Z,9.90
2019-05-12T20:36:40.780Z,9.80
2019-05-12T20:39:09.887Z,9.80
2019-05-12T20:41:36.256Z,9.80
2019-05-12T20:44:03.350Z,9.90
2019-05-12T20:46:30.115Z,9.80
2019-05-12T20:49:01.288Z,9.80
2019-05-12T20:51:25.398Z,9.80
2019-05-12T20:53:52.217Z,9.70
2019-05-12T20:56:21.932Z,9.70
2019-05-12T20:58:47.920Z,9.70
2019-05-12T21:01:14.980Z,9.70
2019-05-12T21:03:46.403Z,9.60
2019-05-12T21:06:10.609Z,9.70
2019-05-12T21:08:37.718Z,9.70
2019-05-12T21:11:04.637Z,9.70
2019-05-12T21:13:31.907Z,9.70
2019-05-12T21:16:00.050Z,9.80
2019-05-12T21:18:26.737Z,9.80
2019-05-12T21:20:54.749Z,9.80
2019-05-12T21:23:23.903Z,9.80
2019-05-12T21:25:53.363Z,9.90
2019-05-12T21:28:18.756Z,9.90
2019-05-12T21:30:48.300Z,10.00
2019-05-12T21:33:14.880Z,10.00
2019-05-12T21:35:45.836Z,10.00
2019-05-12T21:38:10.428Z,10.00
2019-05-12T21:40:37.379Z,10.00
2019-05-12T21:43:04.242Z,10.00
2019-05-12T21:45:31.341Z,10.00
2019-05-12T21:47:58.124Z,10.00
2019-05-12T21:50:32.707Z,10.00
2019-05-12T21:52:57.024Z,10.10
2019-05-12T21:55:26.637Z,10.00
2019-05-12T21:57:53.829Z,10.00
2019-05-12T22:00:34.870Z,10.10
2019-05-12T22:03:09.634Z,10.10
2019-05-12T22:05:48.206Z,10.00
2019-05-12T22:08:00.276Z,10.10
2019-05-12T22:10:30.774Z,10.10
2019-05-12T22:13:00.529Z,10.10
2019-05-12T22:15:24.802Z,10.10
2019-05-12T22:17:59.549Z,10.20
2019-05-12T22:20:31.530Z,10.30
2019-05-12T22:23:00.472Z,10.20
2019-05-12T22:25:27.221Z,10.20
2019-05-12T22:27:58.845Z,10.20
2019-05-12T22:30:24.156Z,10.20
2019-05-12T22:32:54.024Z,10.20
2019-05-12T22:35:21.843Z,10.20
2019-05-12T22:37:49.084Z,10.20
2019-05-12T22:40:19.297Z,10.10
2019-05-12T22:42:44.596Z,10.10
2019-05-12T22:45:15.084Z,10.10
2019-05-12T22:47:40.792Z,10.10
2019-05-12T22:50:07.817Z,10.10
2019-05-12T22:52:39.058Z,10.10
2019-05-12T22:55:04.908Z,10.10
2019-05-12T22:57:35.600Z,10.20
2019-05-12T23:00:03.840Z,10.20
2019-05-12T23:02:33.776Z,10.20
2019-05-12T23:05:00.350Z,10.20
2019-05-12T23:07:29.702Z,10.20
2019-05-12T23:10:00.720Z,10.20
2019-05-12T23:12:24.192Z,10.20
2019-05-12T23:14:54.090Z,10.20
2019-05-12T23:17:19.736Z,10.20
2019-05-12T23:19:51.513Z,10.30
2019-05-12T23:22:16.189Z,10.30
2019-05-12T23:24:44.111Z,10.20
2019-05-12T23:27:10.989Z,10.30
2019-05-12T23:29:38.734Z,10.20
2019-05-12T23:32:11.785Z,10.20
2019-05-12T23:34:34.098Z,10.30
2019-05-12T23:37:00.846Z,10.30
2019-05-12T23:39:32.405Z,10.30
2019-05-12T23:41:56.295Z,10.30
2019-05-12T23:44:24.006Z,10.30
2019-05-12T23:46:50.896Z,10.30
2019-05-12T23:49:17.676Z,10.30
2019-05-12T23:51:44.514Z,10.40
2019-05-12T23:54:11.280Z,10.30
2019-05-12T23:56:37.985Z,10.30
2019-05-12T23:59:04.767Z,10.30
